Impacts METAR Board
IDs:

KCLT - Charlotte/Douglas In, NC, US

Updated at: 0800 UTC 19 Jun 2018
Potential Impact None Slight Moderate High
Time 18/20Z 18/21Z 18/22Z 18/23Z 19/00Z 19/01Z 19/02Z 19/03Z 19/04Z 19/05Z 19/06Z 19/07Z 19/08Z
Temp94 92 91 90 89 85 84 82 82 80 79 78 77
Dewpt67 68 70 72 73 74 72 72 73 73 72 72 72
Altim30.07 30.04 30.04 30.03 30.03 30.03 30.03 30.04 30.04 30.04 30.02 30.02 30.01
VIS10 10 10 10 10 10 10 10 10 10 10 10 10
CIG-- -- -- -- -- -- -- -- -- -- -- -- --
CoverSCTSCTSCTSCTSCTSCTSCTSCTFEWCLRCLRCLRCLR
FltCatVFRVFRVFRVFRVFRVFRVFRVFRVFRVFRVFRVFRVFR
WX--------------------------
WDir260230210240240230240240240260260260280
WSpd7 8 7 4 4 4 4 5 5 4 5 4 3
WGst-- -- -- -- -- -- -- -- -- -- -- -- --
Raw hourly METARs
KCLT 181952Z 26007KT 230V290 10SM FEW055 SCT250 34/19 A3007 RMK AO2 SLP171 CB DSNT E-SE AND NW TCU DSNT S T03440194
KCLT 182052Z 23008KT 10SM FEW060 SCT250 33/20 A3004 RMK AO2 SLP163 CB DSNT SE AND NW TCU DSNT NE AND E T03330200 56022
KCLT 182152Z 21007KT 10SM FEW060 SCT180 SCT250 33/21 A3004 RMK AO2 SLP163 TCU DSNT N AND NE AND SE T03280211
KCLT 182252Z 24004KT 10SM FEW050 SCT230 32/22 A3003 RMK AO2 SLP159 T03220222
KCLT 182352Z 24004KT 10SM FEW045 SCT230 32/23 A3003 RMK AO2 SLP158 CB DSNT E AND W T03170228 10356 20317 58005
KCLT 190052Z 23004KT 10SM FEW045 SCT250 29/23 A3003 RMK AO2 SLP158 CB DSNT W T02940233
KCLT 190152Z 24004KT 10SM SCT250 29/22 A3003 RMK AO2 SLP158 T02890222
KCLT 190252Z 24005KT 10SM SCT250 28/22 A3004 RMK AO2 SLP161 T02780222 53004
KCLT 190352Z 24005KT 10SM FEW250 28/23 A3004 RMK AO2 SLP161 T02780228
KCLT 190452Z 26004KT 10SM CLR 27/23 A3004 RMK AO2 SLP160 T02670228 403560217
KCLT 190552Z 26005KT 10SM CLR 26/22 A3002 RMK AO2 SLP156 T02610222 10317 20261 58005
KCLT 190652Z 26004KT 10SM CLR 26/22 A3002 RMK AO2 SLP155 T02560222
KCLT 190752Z 28003KT 10SM CLR 25/22 A3001 RMK AO2 SLP152 T02500222



Page loaded:  08:53 UTC  |   01:53 AM Pacific  |   02:53 AM Mountain  |   03:53 AM Central  |   04:53 AM Eastern

 

ADVISORIES

FORECASTS

FORECASTS

OBSERVATIONS

USER TOOLS

ABOUT US